Eminence, Mississippi
Current Conditions -  °F | °C
As of 10:55 AM on Thursday 30 Oct 2014 (Local Time) from KPIB Reporting Station
Clear Clear  
Wind Chill: 64°   Ceiling: Unl
Heat Index: 64°   Visibility: 10mi
Dew Point: 41°   Wind: 12mph
Humidity: 42%   Direction: 70°ENE
Pressure: 30.16"   Gusts: NA
Location:  31.5166°N, 89.4877°W
Report Text: KPIB 301555Z AUTO 07010KT 10SM CLR 18/05 A3016 RMK AO1
Loading
Personal Weather Stations






























Interactive Weather Map
Tropical Storm Tracking
New forecast layout! Learn more

10-Day Weather Forecast

Advertisements
Track Severe Weather on mobile